This is the latest recevied weather packets stored in our database for station/object EA1AV-7. If no packets are shown the sender has not sent any weather packets the latest 10 day(s).
| Time | Temp. | Humidity | Pressure | Rain* | Wind** | Luminosity | Snow |
|---|---|---|---|---|---|---|---|
| 1777661769 | 26.67° C | 32% | 923.1 hPa | - | - | - | - |
| 1777661469 | 26.67° C | 33% | 923.2 hPa | - | - | - | - |
| 1777660868 | 27.22° C | 32% | 923.2 hPa | - | - | - | - |
| 1777660568 | 27.22° C | 32% | 923.3 hPa | - | - | - | - |
| 1777660268 | 27.22° C | 32% | 923.2 hPa | - | - | - | - |
| 1777659968 | 27.22° C | 33% | 923 hPa | - | - | - | - |
| 1777657265 | 28.89° C | 34% | 922.3 hPa | - | - | - | - |
| 1777656966 | 29.44° C | 34% | 922.3 hPa | - | - | - | - |
| 1777656366 | 30° C | 35% | 922.3 hPa | - | - | - | - |
| 1777656066 | 29.44° C | 35% | 922.2 hPa | - | - | - | - |
| 1777654288 | 28.33° C | 36% | 922.2 hPa | - | - | - | - |
| 1777653051 | 28.33° C | 39% | 923.3 hPa | - | - | - | - |
| 1777652451 | 28.89° C | 33% | 923.1 hPa | - | - | - | - |
| 1777652140 | 28.33° C | 35% | 923.7 hPa | - | - | - | - |
| 1777651828 | 27.78° C | 36% | 923.8 hPa | - | - | - | - |
| 1777651528 | 27.78° C | 37% | 923.8 hPa | - | - | - | - |
| 1777651228 | 27.22° C | 40% | 923.9 hPa | - | - | - | - |
| 1777650928 | 26.67° C | 48% | 923.9 hPa | - | - | - | - |
| 1777650628 | 25.56° C | 51% | 923.5 hPa | - | - | - | - |
| 1777650328 | 25.56° C | 51% | 923.5 hPa | - | - | - | - |
| 1777650028 | 24.44° C | 53% | 923.6 hPa | - | - | - | - |
| 1777484919 | 26.67° C | 44% | 914.5 hPa | - | - | - | - |
| 1777484619 | 26.67° C | 44% | 914.5 hPa | - | - | - | - |
| 1777484319 | 26.67° C | 43% | 914.4 hPa | - | - | - | - |
| 1777484019 | 26.67° C | 44% | 914.2 hPa | - | - | - | - |
* Rain since midnight (hover to see other rain measurements)
** Current wind speed in m/s (hover to see current wind gust speed)